createdAt,value
2017-05-21T00:03:43.265Z,13.50
2017-05-21T00:06:11.588Z,13.60
2017-05-21T00:08:39.625Z,13.60
2017-05-21T00:11:07.592Z,13.50
2017-05-21T00:13:35.926Z,13.60
2017-05-21T00:16:03.921Z,13.50
2017-05-21T00:18:32.244Z,13.50
2017-05-21T00:21:00.196Z,13.50
2017-05-21T00:23:28.573Z,13.50
2017-05-21T00:25:56.897Z,13.50
2017-05-21T00:28:25.222Z,13.40
2017-05-21T00:30:53.264Z,13.40
2017-05-21T00:35:50.902Z,13.30
2017-05-21T00:38:18.917Z,13.30
2017-05-21T00:40:47.248Z,13.20
2017-05-21T00:43:15.213Z,13.20
2017-05-21T00:45:43.245Z,13.20
2017-05-21T00:48:11.197Z,13.30
2017-05-21T00:50:39.905Z,13.20
2017-05-21T00:53:08.287Z,13.20
2017-05-21T00:55:36.613Z,13.10
2017-05-21T00:58:04.170Z,13.10
2017-05-21T01:00:32.165Z,13.10
2017-05-21T01:03:00.854Z,13.00
2017-05-21T01:05:29.173Z,13.00
2017-05-21T01:07:57.541Z,13.10
2017-05-21T01:10:26.237Z,13.00
2017-05-21T01:12:54.576Z,13.10
2017-05-21T01:15:22.600Z,13.00
2017-05-21T01:17:50.560Z,13.00
2017-05-21T01:20:18.889Z,13.00
2017-05-21T01:22:46.893Z,13.00
2017-05-21T01:25:15.218Z,12.90
2017-05-21T01:27:43.172Z,12.90
2017-05-21T01:30:11.549Z,13.00
2017-05-21T01:32:39.511Z,13.00
2017-05-21T01:35:07.545Z,12.90
2017-05-21T01:37:35.611Z,12.80
2017-05-21T01:40:03.585Z,12.90
2017-05-21T01:42:31.909Z,12.90
2017-05-21T01:45:00.649Z,12.90
2017-05-21T01:47:28.604Z,12.90
2017-05-21T01:49:56.573Z,12.80
2017-05-21T01:52:24.978Z,12.80
2017-05-21T01:54:53.331Z,12.70
2017-05-21T01:57:21.711Z,12.70
2017-05-21T01:59:49.804Z,12.70
2017-05-21T02:02:17.774Z,12.70
2017-05-21T02:04:46.825Z,12.70
2017-05-21T02:07:14.826Z,12.70
2017-05-21T02:09:43.157Z,12.60
2017-05-21T02:12:11.108Z,12.70
2017-05-21T02:14:39.113Z,12.70
2017-05-21T02:17:07.437Z,12.70
2017-05-21T02:19:35.388Z,12.70
2017-05-21T02:22:04.146Z,12.70
2017-05-21T02:24:32.469Z,12.70
2017-05-21T02:27:00.800Z,12.70
2017-05-21T02:29:29.168Z,12.70
2017-05-21T02:34:26.765Z,12.70
2017-05-21T02:36:55.144Z,12.70
2017-05-21T02:39:23.489Z,12.60
2017-05-21T02:41:51.449Z,12.70
2017-05-21T02:44:19.838Z,12.70
2017-05-21T02:46:48.536Z,12.70
2017-05-21T02:49:17.233Z,12.70
2017-05-21T02:51:45.606Z,12.70
2017-05-21T02:54:13.931Z,12.70
2017-05-21T02:56:42.998Z,12.70
2017-05-21T02:59:11.373Z,12.80
2017-05-21T03:01:39.335Z,12.80
2017-05-21T03:04:07.669Z,12.70
2017-05-21T03:06:35.673Z,12.70
2017-05-21T03:09:03.993Z,12.70
2017-05-21T03:11:32.312Z,12.70
2017-05-21T03:13:59.927Z,12.70
2017-05-21T03:16:28.292Z,12.60
2017-05-21T03:18:57.003Z,12.70
2017-05-21T03:21:25.399Z,12.70
2017-05-21T03:23:53.362Z,12.60
2017-05-21T03:28:50.691Z,12.70
2017-05-21T03:31:18.662Z,12.50
2017-05-21T03:33:46.631Z,12.50
2017-05-21T03:36:15.453Z,12.40
2017-05-21T03:38:43.782Z,12.40
2017-05-21T03:41:12.109Z,12.40
2017-05-21T03:43:40.126Z,12.30
2017-05-21T03:46:08.098Z,12.40
2017-05-21T03:48:36.058Z,12.40
2017-05-21T03:51:04.077Z,12.30
2017-05-21T03:53:32.401Z,12.40
2017-05-21T03:56:00.352Z,12.40
2017-05-21T03:58:28.726Z,12.40
2017-05-21T04:00:57.046Z,12.40
2017-05-21T04:03:25.009Z,12.50
2017-05-21T04:05:52.633Z,12.50
2017-05-21T04:08:20.201Z,12.40
2017-05-21T04:10:48.539Z,12.50
2017-05-21T04:13:16.557Z,12.50
2017-05-21T04:15:44.885Z,12.50
2017-05-21T04:18:13.210Z,12.50
2017-05-21T04:20:41.208Z,12.60
2017-05-21T04:23:09.551Z,12.60
2017-05-21T04:25:37.506Z,12.60
2017-05-21T04:28:05.512Z,12.50
2017-05-21T04:30:33.460Z,12.60
2017-05-21T04:33:02.516Z,12.60
2017-05-21T04:38:00.160Z,12.70
2017-05-21T04:40:28.473Z,12.80
2017-05-21T04:42:56.861Z,12.80
2017-05-21T04:45:24.824Z,12.70
2017-05-21T04:47:53.163Z,12.70
2017-05-21T04:50:21.549Z,12.70
2017-05-21T04:52:50.258Z,12.70
2017-05-21T04:55:18.570Z,12.70
2017-05-21T04:57:46.601Z,12.80
2017-05-21T05:00:14.549Z,12.80
2017-05-21T05:02:42.870Z,12.80
2017-05-21T05:05:10.865Z,12.80
2017-05-21T05:07:39.550Z,12.90
2017-05-21T05:10:07.902Z,12.90
2017-05-21T05:12:36.303Z,13.00
2017-05-21T05:15:04.620Z,13.00
2017-05-21T05:17:32.578Z,13.10
2017-05-21T05:22:29.874Z,13.20
2017-05-21T05:24:57.829Z,13.20
2017-05-21T05:27:25.828Z,13.20
2017-05-21T05:29:54.166Z,13.30
2017-05-21T05:32:22.142Z,13.40
2017-05-21T05:34:50.141Z,13.40
2017-05-21T05:37:18.469Z,13.40
2017-05-21T05:39:46.421Z,13.40
2017-05-21T05:42:14.428Z,13.40
2017-05-21T05:44:43.125Z,13.50
2017-05-21T05:47:11.453Z,13.60
2017-05-21T05:49:39.824Z,13.60
2017-05-21T05:52:08.166Z,13.70
2017-05-21T05:57:05.821Z,13.80
2017-05-21T05:59:34.516Z,13.80
2017-05-21T06:04:32.541Z,13.90
2017-05-21T06:07:00.857Z,14.00
2017-05-21T06:09:29.918Z,14.10
2017-05-21T06:11:57.912Z,14.20
2017-05-21T06:14:26.233Z,14.40
2017-05-21T06:16:54.200Z,14.40
2017-05-21T06:19:22.226Z,14.50
2017-05-21T06:21:50.186Z,14.60
2017-05-21T06:24:18.502Z,14.60
2017-05-21T06:26:47.208Z,14.80
2017-05-21T06:29:15.529Z,14.80
2017-05-21T06:31:43.849Z,14.90
2017-05-21T06:34:12.213Z,15.00
2017-05-21T06:36:41.267Z,15.10
2017-05-21T06:39:09.606Z,15.10
2017-05-21T06:41:38.001Z,15.10
2017-05-21T06:44:06.337Z,15.30
2017-05-21T06:46:34.277Z,15.70
2017-05-21T06:49:01.873Z,16.10
2017-05-21T06:51:30.556Z,16.50
2017-05-21T06:53:58.100Z,16.70
2017-05-21T06:56:26.089Z,16.80
2017-05-21T06:58:54.054Z,16.70
2017-05-21T07:01:22.010Z,17.10
2017-05-21T07:03:50.377Z,17.40
2017-05-21T07:06:18.689Z,17.80
2017-05-21T07:08:47.060Z,17.70
2017-05-21T07:11:15.421Z,18.20
2017-05-21T07:13:43.740Z,18.20
2017-05-21T07:16:12.064Z,18.40
2017-05-21T07:21:09.717Z,18.70
2017-05-21T07:23:38.053Z,18.70
2017-05-21T07:26:06.424Z,18.70
2017-05-21T07:28:35.480Z,18.80
2017-05-21T07:31:03.433Z,19.00
2017-05-21T07:33:31.461Z,19.30
2017-05-21T07:35:59.016Z,19.50
2017-05-21T07:38:27.708Z,19.60
2017-05-21T07:45:54.289Z,19.60
2017-05-21T07:48:22.310Z,19.90
2017-05-21T07:50:50.295Z,19.90
2017-05-21T07:53:18.877Z,20.00
2017-05-21T07:55:46.889Z,20.10
2017-05-21T07:58:14.830Z,20.10
2017-05-21T08:00:43.148Z,20.10
2017-05-21T08:03:11.532Z,20.20
2017-05-21T08:05:39.865Z,20.30
2017-05-21T08:08:07.827Z,20.50
2017-05-21T08:10:36.215Z,20.60
2017-05-21T08:15:33.429Z,20.90
2017-05-21T08:18:01.796Z,20.80
2017-05-21T08:20:29.744Z,20.80
2017-05-21T08:22:57.685Z,20.60
2017-05-21T08:25:26.045Z,20.90
2017-05-21T08:27:54.006Z,20.80
2017-05-21T08:30:21.979Z,21.00
2017-05-21T08:32:50.366Z,21.20
2017-05-21T08:35:18.308Z,21.50
2017-05-21T08:37:46.620Z,21.60
2017-05-21T08:40:15.086Z,21.70
2017-05-21T08:42:43.397Z,21.70
2017-05-21T08:45:11.388Z,21.70
2017-05-21T08:47:39.889Z,21.80
2017-05-21T08:52:37.113Z,22.10
2017-05-21T08:55:05.130Z,22.40
2017-05-21T08:57:33.445Z,22.70
2017-05-21T09:00:01.395Z,22.60
2017-05-21T09:02:29.756Z,22.60
2017-05-21T09:04:57.705Z,22.70
2017-05-21T09:07:25.657Z,22.90
2017-05-21T09:09:54.069Z,22.90
2017-05-21T09:12:22.406Z,23.10
2017-05-21T09:14:51.108Z,22.90
2017-05-21T09:17:19.593Z,23.10
2017-05-21T09:19:48.701Z,23.30
2017-05-21T09:22:17.013Z,23.50
2017-05-21T09:24:45.021Z,23.60
2017-05-21T09:27:13.701Z,23.80
2017-05-21T09:29:41.646Z,23.90
2017-05-21T09:32:09.645Z,24.00
2017-05-21T09:34:37.965Z,24.30
2017-05-21T09:37:06.281Z,24.30
2017-05-21T09:39:35.377Z,24.10
2017-05-21T09:42:03.313Z,23.90
2017-05-21T09:44:31.253Z,24.10
2017-05-21T09:46:59.674Z,23.90
2017-05-21T09:49:27.624Z,23.90
2017-05-21T09:51:55.577Z,24.30
2017-05-21T09:54:23.954Z,24.00
2017-05-21T09:56:51.928Z,24.30
2017-05-21T09:59:20.266Z,24.40
2017-05-21T10:01:48.633Z,24.70
2017-05-21T10:04:16.953Z,24.70
2017-05-21T10:11:43.474Z,24.90
2017-05-21T10:14:11.788Z,25.10
2017-05-21T10:16:40.887Z,24.60
2017-05-21T10:24:07.436Z,24.70
2017-05-21T10:26:35.376Z,24.80
2017-05-21T10:29:03.308Z,24.80
2017-05-21T10:31:31.665Z,24.90
2017-05-21T10:33:59.605Z,25.10
2017-05-21T10:36:27.550Z,25.10
2017-05-21T10:38:55.921Z,25.10
2017-05-21T10:46:22.878Z,23.90
2017-05-21T10:53:49.521Z,24.70
2017-05-21T10:56:17.460Z,24.70
2017-05-21T10:58:45.773Z,24.90
2017-05-21T11:01:14.886Z,25.20
2017-05-21T11:03:43.193Z,25.40
2017-05-21T11:06:11.133Z,25.60
2017-05-21T11:08:39.147Z,25.80
2017-05-21T11:11:07.461Z,25.70
2017-05-21T11:13:35.418Z,25.80
2017-05-21T11:16:03.416Z,25.80
2017-05-21T11:18:31.733Z,25.90
2017-05-21T11:20:59.680Z,26.00
2017-05-21T11:23:28.037Z,25.30
2017-05-21T11:25:56.344Z,25.60
2017-05-21T11:28:24.681Z,25.70
2017-05-21T11:30:52.688Z,25.80
2017-05-21T11:38:19.731Z,25.90
2017-05-21T11:40:47.686Z,26.00
2017-05-21T11:43:16.737Z,25.70
2017-05-21T11:45:45.096Z,25.90
2017-05-21T11:48:13.038Z,25.90
2017-05-21T11:50:41.357Z,26.20
2017-05-21T11:53:09.360Z,25.90
2017-05-21T11:55:37.306Z,26.10
2017-05-21T11:58:05.245Z,26.10
2017-05-21T12:00:33.600Z,26.20
2017-05-21T12:03:01.916Z,26.20
2017-05-21T12:05:29.865Z,26.10
2017-05-21T12:12:56.758Z,26.00
2017-05-21T12:15:25.136Z,25.90
2017-05-21T12:17:53.094Z,25.90
2017-05-21T12:20:21.408Z,25.90
2017-05-21T12:22:50.577Z,25.90
2017-05-21T12:25:18.523Z,25.90
2017-05-21T12:32:45.060Z,25.70
2017-05-21T12:35:13.374Z,25.70
2017-05-21T12:37:41.352Z,25.80
2017-05-21T12:40:09.313Z,25.90
2017-05-21T12:42:37.646Z,25.70
2017-05-21T12:45:05.638Z,25.50
2017-05-21T12:47:33.952Z,25.50
2017-05-21T12:50:02.262Z,25.50
2017-05-21T12:52:30.628Z,25.10
2017-05-21T12:54:58.573Z,25.40
2017-05-21T12:57:26.889Z,25.30
2017-05-21T12:59:55.260Z,25.30
2017-05-21T13:02:23.221Z,25.30
2017-05-21T13:04:52.289Z,25.20
2017-05-21T13:07:20.665Z,25.30
2017-05-21T13:09:48.636Z,25.40
2017-05-21T13:14:45.529Z,24.60
2017-05-21T13:17:13.841Z,24.90
2017-05-21T13:19:42.149Z,25.00
2017-05-21T13:22:10.512Z,25.20
2017-05-21T13:24:39.200Z,25.10
2017-05-21T13:27:07.506Z,25.10
2017-05-21T13:29:35.865Z,25.10
2017-05-21T13:32:04.181Z,25.10
2017-05-21T13:34:32.492Z,25.20
2017-05-21T13:37:00.475Z,25.20
2017-05-21T13:39:28.796Z,25.10
2017-05-21T13:41:57.104Z,25.10
2017-05-21T13:44:25.477Z,25.10
2017-05-21T13:46:53.433Z,24.60
2017-05-21T13:49:21.757Z,24.70
2017-05-21T13:51:50.500Z,24.70
2017-05-21T13:54:18.810Z,24.50
2017-05-21T13:56:46.748Z,24.60
2017-05-21T13:59:14.733Z,24.10
2017-05-21T14:01:43.044Z,24.10
2017-05-21T14:04:10.997Z,23.80
2017-05-21T14:06:39.377Z,22.90
2017-05-21T14:09:08.322Z,23.20
2017-05-21T14:14:05.970Z,23.50
2017-05-21T14:16:34.277Z,23.50
2017-05-21T14:21:31.918Z,23.10
2017-05-21T14:23:59.861Z,23.30
2017-05-21T14:26:28.172Z,23.40
2017-05-21T14:33:54.328Z,23.30
2017-05-21T14:36:23.076Z,22.70
2017-05-21T14:38:51.032Z,22.80
2017-05-21T14:46:16.825Z,22.90
2017-05-21T14:48:45.139Z,22.80
2017-05-21T14:51:13.521Z,22.70
2017-05-21T14:53:41.829Z,22.70
2017-05-21T14:56:10.163Z,22.90
2017-05-21T14:58:38.538Z,22.90
2017-05-21T15:01:06.480Z,23.00
2017-05-21T15:03:34.788Z,23.10
2017-05-21T15:06:02.768Z,23.00
2017-05-21T15:10:59.969Z,22.70
2017-05-21T15:13:28.348Z,22.80
2017-05-21T15:15:56.662Z,22.70
2017-05-21T15:18:24.630Z,22.60
2017-05-21T15:20:53.464Z,22.40
2017-05-21T15:23:21.028Z,22.40
2017-05-21T15:25:49.024Z,22.50
2017-05-21T15:28:17.037Z,22.40
2017-05-21T15:30:45.041Z,22.50
2017-05-21T15:33:13.353Z,22.60
2017-05-21T15:35:41.713Z,22.70
2017-05-21T15:38:10.029Z,22.80
2017-05-21T15:40:37.974Z,22.80
2017-05-21T15:43:06.337Z,22.80
2017-05-21T15:45:34.666Z,22.80
2017-05-21T15:48:03.721Z,22.70
2017-05-21T15:50:31.708Z,22.80
2017-05-21T15:55:28.916Z,22.80
2017-05-21T16:00:26.240Z,22.90
2017-05-21T16:02:54.553Z,23.00
2017-05-21T16:07:52.805Z,22.90
2017-05-21T16:10:20.776Z,22.80
2017-05-21T16:12:49.153Z,22.70
2017-05-21T16:15:17.473Z,22.80
2017-05-21T16:17:45.781Z,22.80
2017-05-21T16:20:13.797Z,22.80
2017-05-21T16:22:42.109Z,22.70
2017-05-21T16:25:10.434Z,22.80
2017-05-21T16:27:38.438Z,22.90
2017-05-21T16:30:06.757Z,22.80
2017-05-21T16:32:35.068Z,22.90
2017-05-21T16:37:31.989Z,22.80
2017-05-21T16:39:59.971Z,22.80
2017-05-21T16:42:28.361Z,22.90
2017-05-21T16:44:56.693Z,22.90
2017-05-21T16:47:25.038Z,22.90
2017-05-21T16:49:53.069Z,23.00
2017-05-21T16:52:21.406Z,22.90
2017-05-21T16:54:49.732Z,22.80
2017-05-21T16:57:18.186Z,22.70
2017-05-21T17:02:15.873Z,22.70
2017-05-21T17:04:43.909Z,22.70
2017-05-21T17:07:12.307Z,22.60
2017-05-21T17:12:09.653Z,22.60
2017-05-21T17:14:37.597Z,22.60
2017-05-21T17:17:05.940Z,22.50
2017-05-21T17:19:33.972Z,22.40
2017-05-21T17:22:01.973Z,22.30
2017-05-21T17:24:29.946Z,22.20
2017-05-21T17:26:58.412Z,22.00
2017-05-21T17:29:27.972Z,22.00
2017-05-21T17:31:56.813Z,22.00
2017-05-21T17:34:24.821Z,21.90
2017-05-21T17:36:52.870Z,22.10
2017-05-21T17:39:21.233Z,22.10
2017-05-21T17:41:49.654Z,22.10
2017-05-21T17:44:17.637Z,22.10
2017-05-21T17:46:45.984Z,22.00
2017-05-21T17:49:14.000Z,22.00
2017-05-21T17:51:42.308Z,21.90
2017-05-21T17:54:10.624Z,22.00
2017-05-21T17:56:39.030Z,22.00
2017-05-21T17:59:08.233Z,21.80
2017-05-21T18:01:37.526Z,21.80
2017-05-21T18:04:05.953Z,21.90
2017-05-21T18:06:33.905Z,21.90
2017-05-21T18:09:01.899Z,21.80
2017-05-21T18:11:30.464Z,21.70
2017-05-21T18:13:58.870Z,21.70
2017-05-21T18:16:27.248Z,21.70
2017-05-21T18:18:55.729Z,21.70
2017-05-21T18:23:53.397Z,21.60
2017-05-21T18:26:22.106Z,21.50
2017-05-21T18:31:19.024Z,21.50
2017-05-21T18:33:48.393Z,21.50
2017-05-21T18:36:18.599Z,21.50
2017-05-21T18:41:15.542Z,21.50
2017-05-21T18:43:43.874Z,21.50
2017-05-21T18:46:11.874Z,21.30
2017-05-21T18:48:40.713Z,21.40
2017-05-21T18:51:09.037Z,21.30
2017-05-21T18:53:37.353Z,21.20
2017-05-21T18:56:06.505Z,21.20
2017-05-21T19:01:03.368Z,21.10
2017-05-21T19:03:31.637Z,21.10
2017-05-21T19:08:28.845Z,21.00
2017-05-21T19:10:57.172Z,20.90
2017-05-21T19:13:25.881Z,20.90
2017-05-21T19:15:54.225Z,20.90
2017-05-21T19:18:22.746Z,20.80
2017-05-21T19:20:51.817Z,20.70
2017-05-21T19:23:20.173Z,20.60
2017-05-21T19:28:17.818Z,20.40
2017-05-21T19:30:46.152Z,20.40
2017-05-21T19:33:14.629Z,20.20
2017-05-21T19:35:42.941Z,20.20
2017-05-21T19:40:40.704Z,20.00
2017-05-21T19:43:09.037Z,19.90
2017-05-21T19:45:36.989Z,19.80
2017-05-21T19:48:05.417Z,19.70
2017-05-21T19:50:33.360Z,19.60
2017-05-21T19:53:01.670Z,19.50
2017-05-21T19:55:30.909Z,19.50
2017-05-21T19:57:59.963Z,19.40
2017-05-21T20:00:28.295Z,19.40
2017-05-21T20:02:56.717Z,19.40
2017-05-21T20:05:25.410Z,19.30
2017-05-21T20:07:53.378Z,19.30
2017-05-21T20:10:21.781Z,19.20
2017-05-21T20:12:50.138Z,19.10
2017-05-21T20:17:47.850Z,19.00
2017-05-21T20:20:16.165Z,19.00
2017-05-21T20:22:44.494Z,18.90
2017-05-21T20:25:13.328Z,18.90
2017-05-21T20:30:11.288Z,18.80
2017-05-21T20:32:39.305Z,18.80
2017-05-21T20:35:07.629Z,18.70
2017-05-21T20:37:36.690Z,18.60
2017-05-21T20:40:05.129Z,18.60
2017-05-21T20:42:33.086Z,18.60
2017-05-21T20:45:01.034Z,18.50
2017-05-21T20:47:29.429Z,18.50
2017-05-21T20:49:57.374Z,18.40
2017-05-21T20:52:25.338Z,18.30
2017-05-21T20:54:53.750Z,18.10
2017-05-21T20:57:21.710Z,18.20
2017-05-21T20:59:49.662Z,18.10
2017-05-21T21:02:18.425Z,18.10
2017-05-21T21:04:46.365Z,18.00
2017-05-21T21:07:15.053Z,18.00
2017-05-21T21:09:43.475Z,18.00
2017-05-21T21:14:40.332Z,17.90
2017-05-21T21:17:08.710Z,17.90
2017-05-21T21:19:36.658Z,17.80
2017-05-21T21:27:02.861Z,17.70
2017-05-21T21:29:31.184Z,17.60
2017-05-21T21:31:59.178Z,17.50
2017-05-21T21:34:27.497Z,17.60
2017-05-21T21:36:55.449Z,17.50
2017-05-21T21:39:23.460Z,17.30
2017-05-21T21:41:51.831Z,17.30
2017-05-21T21:44:19.770Z,17.20
2017-05-21T21:49:17.053Z,17.20
2017-05-21T21:51:45.377Z,17.10
2017-05-21T21:59:11.724Z,17.00
2017-05-21T22:01:39.747Z,17.00
2017-05-21T22:04:08.061Z,16.90
2017-05-21T22:06:36.745Z,16.90
2017-05-21T22:09:05.122Z,16.80
2017-05-21T22:11:33.077Z,16.80
2017-05-21T22:14:01.022Z,16.80
2017-05-21T22:16:29.386Z,16.80
2017-05-21T22:18:57.335Z,16.80
2017-05-21T22:21:25.659Z,16.80
2017-05-21T22:23:53.674Z,16.80
2017-05-21T22:26:22.002Z,16.70
2017-05-21T22:28:50.355Z,16.60
2017-05-21T22:31:19.086Z,16.60
2017-05-21T22:36:16.664Z,16.60
2017-05-21T22:38:45.052Z,16.60
2017-05-21T22:41:13.736Z,16.50
2017-05-21T22:43:41.673Z,16.50
2017-05-21T22:46:09.673Z,16.50
2017-05-21T22:48:38.730Z,16.40
2017-05-21T22:51:06.676Z,16.50
2017-05-21T22:53:35.041Z,16.40
2017-05-21T22:56:02.985Z,16.40
2017-05-21T22:58:30.936Z,16.30
2017-05-21T23:00:59.297Z,16.40
2017-05-21T23:03:27.242Z,16.30
2017-05-21T23:05:55.568Z,16.20
2017-05-21T23:08:23.950Z,16.20
2017-05-21T23:10:51.913Z,16.10
2017-05-21T23:13:20.629Z,16.10
2017-05-21T23:15:48.629Z,16.00
2017-05-21T23:18:16.578Z,16.00
2017-05-21T23:20:44.892Z,15.90
2017-05-21T23:28:12.365Z,15.80
2017-05-21T23:30:40.777Z,15.80
2017-05-21T23:33:08.738Z,15.80
2017-05-21T23:35:36.681Z,15.70
2017-05-21T23:38:05.040Z,15.70
2017-05-21T23:40:33.361Z,15.70
2017-05-21T23:43:01.681Z,15.60
2017-05-21T23:45:30.041Z,15.50
2017-05-21T23:47:58.351Z,15.50
2017-05-21T23:50:26.673Z,15.50
2017-05-21T23:55:24.369Z,15.40
2017-05-21T23:57:52.334Z,15.30
